createdAt,value
2022-12-19T00:02:13.041Z,96757.67
2022-12-19T00:05:02.065Z,96763.39
2022-12-19T00:10:33.358Z,96747.12
2022-12-19T00:16:09.920Z,96762.57
2022-12-19T00:21:49.017Z,96754.81
2022-12-19T00:27:25.233Z,96757.30
2022-12-19T00:35:47.180Z,96760.51
2022-12-19T00:41:24.456Z,96766.87
2022-12-19T00:46:55.283Z,96756.91
2022-12-19T00:52:28.281Z,96758.73
2022-12-19T00:58:06.138Z,96750.56
2022-12-19T01:00:54.429Z,96730.63
2022-12-19T01:06:32.705Z,96751.77
2022-12-19T01:12:37.179Z,96743.95
2022-12-19T01:18:13.482Z,96739.52
2022-12-19T01:21:04.607Z,96737.04
2022-12-19T01:26:35.167Z,96741.00
2022-12-19T01:29:24.560Z,96742.62
2022-12-19T01:34:54.496Z,96738.52
2022-12-19T01:37:45.926Z,96736.91
2022-12-19T01:40:34.804Z,96746.85
2022-12-19T01:46:17.887Z,96744.92
2022-12-19T01:49:09.994Z,96741.20
2022-12-19T01:52:01.393Z,96737.98
2022-12-19T01:54:50.313Z,96734.23
2022-12-19T02:00:21.507Z,96730.56
2022-12-19T02:06:01.713Z,96737.33
2022-12-19T02:11:38.963Z,96735.98
2022-12-19T02:17:19.781Z,96729.73
2022-12-19T02:20:25.210Z,96729.95
2022-12-19T02:26:25.395Z,96718.52
2022-12-19T02:35:02.518Z,96724.25
2022-12-19T02:40:40.754Z,96718.17
2022-12-19T02:46:17.380Z,96711.81
2022-12-19T02:51:59.174Z,96713.67
2022-12-19T02:54:50.459Z,96720.12
2022-12-19T03:00:28.202Z,96719.56
2022-12-19T03:11:56.704Z,96734.95
2022-12-19T03:17:36.325Z,96747.61
2022-12-19T03:23:21.020Z,96743.47
2022-12-19T03:28:55.214Z,96738.95
2022-12-19T03:34:27.925Z,96727.77
2022-12-19T03:43:12.681Z,96732.09
2022-12-19T03:48:46.995Z,96730.09
2022-12-19T03:59:56.989Z,96712.24
2022-12-19T04:02:49.712Z,96716.02
2022-12-19T04:08:28.046Z,96713.63
2022-12-19T04:11:19.784Z,96714.73
2022-12-19T04:17:05.182Z,96704.36
2022-12-19T04:25:29.754Z,96697.75
2022-12-19T04:30:59.947Z,96704.28
2022-12-19T04:36:35.151Z,96707.78
2022-12-19T04:42:13.358Z,96709.14
2022-12-19T04:47:42.405Z,96695.78
2022-12-19T04:50:31.588Z,96704.26
2022-12-19T04:56:07.998Z,96700.64
2022-12-19T05:01:46.672Z,96700.95
2022-12-19T05:04:35.013Z,96704.17
2022-12-19T05:07:24.505Z,96704.97
2022-12-19T05:13:00.160Z,96708.80
2022-12-19T05:18:45.527Z,96703.23
2022-12-19T05:24:23.438Z,96689.57
2022-12-19T05:27:11.983Z,96689.47
2022-12-19T05:30:01.373Z,96676.38
2022-12-19T05:35:31.097Z,96686.28
2022-12-19T05:41:11.130Z,96675.69
2022-12-19T05:46:47.346Z,96688.88
2022-12-19T05:52:25.558Z,96678.72
2022-12-19T05:55:18.806Z,96682.19
2022-12-19T06:00:49.002Z,96695.89
2022-12-19T06:06:27.359Z,96687.05
2022-12-19T06:12:10.864Z,96677.77
2022-12-19T06:17:50.978Z,96675.59
2022-12-19T06:23:43.733Z,96690.87
2022-12-19T06:32:07.307Z,96679.20
2022-12-19T06:37:45.346Z,96682.66
2022-12-19T06:43:39.894Z,96690.50
2022-12-19T06:46:40.480Z,96692.61
2022-12-19T06:49:29.057Z,96680.87
2022-12-19T06:52:17.645Z,96668.06
2022-12-19T06:57:53.330Z,96664.27
2022-12-19T07:00:41.775Z,96660.26
2022-12-19T07:06:22.079Z,96670.15
2022-12-19T07:09:10.883Z,96673.58
2022-12-19T07:14:53.102Z,96670.45
2022-12-19T07:17:39.788Z,96657.88
2022-12-19T07:23:15.942Z,96668.87
2022-12-19T07:28:47.283Z,96680.72
2022-12-19T07:31:35.753Z,96673.73
2022-12-19T07:37:12.576Z,96673.27
2022-12-19T07:42:46.355Z,96678.14
2022-12-19T07:48:17.804Z,96688.05
2022-12-19T07:53:57.439Z,96673.84
2022-12-19T07:59:34.398Z,96696.13
2022-12-19T08:02:20.216Z,96692.59
2022-12-19T08:07:50.701Z,96698.02
2022-12-19T08:13:21.183Z,96706.27
2022-12-19T08:16:10.510Z,96700.60
2022-12-19T08:18:58.792Z,96711.61
2022-12-19T08:21:47.471Z,96720.22
2022-12-19T08:27:25.604Z,96715.52
2022-12-19T08:33:05.810Z,96714.52
2022-12-19T08:35:53.883Z,96711.32
2022-12-19T08:41:25.981Z,96722.90
2022-12-19T08:47:02.303Z,96703.84
2022-12-19T08:52:39.918Z,96689.62
2022-12-19T08:58:14.253Z,96691.84
2022-12-19T09:06:33.682Z,96676.83
2022-12-19T09:12:10.907Z,96682.20
2022-12-19T09:18:00.326Z,96689.23
2022-12-19T09:20:48.767Z,96704.25
2022-12-19T09:23:37.218Z,96705.27
2022-12-19T09:29:19.433Z,96710.50
2022-12-19T09:32:00.673Z,96710.00
2022-12-19T09:37:35.832Z,96715.46
2022-12-19T09:43:08.723Z,96701.53
2022-12-19T09:48:40.526Z,96707.20
2022-12-19T09:57:11.794Z,96690.17
2022-12-19T10:02:47.848Z,96701.02
2022-12-19T10:12:45.398Z,96703.01
2022-12-19T10:17:22.121Z,96697.95
2022-12-19T10:22:37.743Z,96700.91
2022-12-19T10:28:16.595Z,96694.95
2022-12-19T10:37:12.380Z,96684.72
2022-12-19T10:42:24.174Z,96671.27
2022-12-19T10:45:15.145Z,96667.50
2022-12-19T10:50:45.637Z,96668.50
2022-12-19T10:56:23.691Z,96667.16
2022-12-19T11:02:11.579Z,96661.81
2022-12-19T11:08:02.781Z,96656.19
2022-12-19T11:12:07.365Z,96652.44
2022-12-19T11:20:45.725Z,96649.50
2022-12-19T11:23:24.227Z,96648.94
2022-12-19T11:29:31.090Z,96651.39
2022-12-19T11:34:04.409Z,96631.13
2022-12-19T11:39:44.921Z,96626.27
2022-12-19T11:45:26.575Z,96627.05
2022-12-19T11:53:56.441Z,96621.98
2022-12-19T11:59:32.658Z,96612.53
2022-12-19T12:02:31.505Z,96616.83
2022-12-19T12:12:08.990Z,96610.92
2022-12-19T12:31:42.405Z,96593.02
2022-12-19T12:41:48.481Z,96582.45
2022-12-19T12:47:26.884Z,96585.86
2022-12-19T12:55:49.275Z,96576.16
2022-12-19T13:01:59.876Z,96572.52
2022-12-19T13:08:02.595Z,96564.17
2022-12-19T13:13:58.767Z,96557.23
2022-12-19T13:19:54.269Z,96548.60
2022-12-19T13:25:51.576Z,96552.91
2022-12-19T13:28:43.308Z,96558.58
2022-12-19T13:34:23.969Z,96538.52
2022-12-19T13:39:58.421Z,96541.69
2022-12-19T13:43:38.640Z,96535.04
2022-12-19T13:49:19.368Z,96542.22
2022-12-19T13:52:11.139Z,96539.34
2022-12-19T13:57:52.396Z,96543.72
2022-12-19T14:00:43.450Z,96554.05
2022-12-19T14:06:21.900Z,96545.90
2022-12-19T14:13:48.464Z,96559.23
2022-12-19T14:18:05.019Z,96564.47
2022-12-19T14:23:43.835Z,96571.21
2022-12-19T14:28:19.303Z,96573.94
2022-12-19T14:33:41.043Z,96571.91
2022-12-19T14:41:08.088Z,96572.01
2022-12-19T14:52:08.330Z,96561.09
2022-12-19T14:56:08.210Z,96572.89
2022-12-19T15:01:24.751Z,96580.02
2022-12-19T15:07:06.901Z,96579.05
2022-12-19T15:14:56.001Z,96571.54
2022-12-19T15:21:28.620Z,96570.61
2022-12-19T15:26:59.382Z,96570.44
2022-12-19T15:32:30.051Z,96566.47
2022-12-19T15:38:06.204Z,96568.09
2022-12-19T15:44:03.208Z,96580.77
2022-12-19T15:49:21.113Z,96581.89
2022-12-19T15:55:04.117Z,96574.92
2022-12-19T16:00:41.538Z,96566.08
2022-12-19T16:06:18.853Z,96576.00
2022-12-19T16:09:17.764Z,96571.72
2022-12-19T16:12:07.420Z,96569.84
2022-12-19T16:17:44.309Z,96571.73
2022-12-19T16:23:13.875Z,96566.64
2022-12-19T16:28:51.222Z,96553.48
2022-12-19T16:34:28.232Z,96558.34
2022-12-19T16:40:04.829Z,96561.52
2022-12-19T16:45:40.006Z,96563.69
2022-12-19T16:48:34.157Z,96569.61
2022-12-19T16:54:13.512Z,96554.02
2022-12-19T16:59:50.023Z,96563.41
2022-12-19T17:05:32.412Z,96559.12
2022-12-19T17:11:04.937Z,96558.61
2022-12-19T17:16:42.089Z,96549.47
2022-12-19T17:22:19.205Z,96549.20
2022-12-19T17:27:58.643Z,96545.45
2022-12-19T17:30:50.087Z,96543.05
2022-12-19T17:36:34.821Z,96547.05
2022-12-19T17:42:15.355Z,96545.72
2022-12-19T17:47:44.022Z,96547.59
2022-12-19T17:50:37.274Z,96538.20
2022-12-19T17:56:16.612Z,96538.99
2022-12-19T18:02:00.987Z,96534.44
2022-12-19T18:07:30.981Z,96532.02
2022-12-19T18:13:03.659Z,96528.79
2022-12-19T18:21:27.788Z,96543.55
2022-12-19T18:27:04.096Z,96526.64
2022-12-19T18:32:35.601Z,96528.00
2022-12-19T18:35:28.082Z,96537.64
2022-12-19T18:41:03.583Z,96529.58
2022-12-19T18:46:46.407Z,96520.17
2022-12-19T18:55:17.539Z,96516.44
2022-12-19T18:58:08.195Z,96515.90
2022-12-19T19:03:45.377Z,96505.42
2022-12-19T19:06:37.919Z,96501.64
2022-12-19T19:12:07.997Z,96501.65
2022-12-19T19:17:40.133Z,96514.54
2022-12-19T19:20:32.207Z,96522.03
2022-12-19T19:29:08.720Z,96505.92
2022-12-19T19:37:35.622Z,96505.38
2022-12-19T19:45:57.311Z,96504.87
2022-12-19T19:51:33.014Z,96497.59
2022-12-19T19:57:09.159Z,96492.48
2022-12-19T20:02:45.872Z,96491.41
2022-12-19T20:05:34.694Z,96487.11
2022-12-19T20:11:13.539Z,96476.91
2022-12-19T20:16:47.827Z,96488.70
2022-12-19T20:22:25.971Z,96485.47
2022-12-19T20:28:08.261Z,96485.47
2022-12-19T20:33:39.721Z,96484.12
2022-12-19T20:39:11.891Z,96476.38
2022-12-19T20:44:47.037Z,96471.27
2022-12-19T20:47:36.294Z,96471.80
2022-12-19T20:50:24.455Z,96472.64
2022-12-19T20:56:09.827Z,96462.10
2022-12-19T21:07:37.032Z,96459.95
2022-12-19T21:13:10.865Z,96471.77
2022-12-19T21:21:32.123Z,96466.58
2022-12-19T21:27:08.765Z,96467.16
2022-12-19T21:32:38.929Z,96459.41
2022-12-19T21:38:13.913Z,96456.95
2022-12-19T21:43:51.255Z,96453.73
2022-12-19T21:52:21.493Z,96464.44
2022-12-19T21:55:11.367Z,96463.66
2022-12-19T22:03:28.348Z,96459.64
2022-12-19T22:09:05.756Z,96451.57
2022-12-19T22:14:42.997Z,96453.19
2022-12-19T22:20:20.150Z,96458.83
2022-12-19T22:26:03.925Z,96460.70
2022-12-19T22:31:39.073Z,96457.45
2022-12-19T22:37:16.674Z,96459.91
2022-12-19T22:45:34.080Z,96451.93
2022-12-19T22:51:11.947Z,96459.44
2022-12-19T22:56:45.775Z,96468.31
2022-12-19T23:02:17.062Z,96466.17
2022-12-19T23:05:07.480Z,96473.16
2022-12-19T23:10:35.808Z,96478.58
2022-12-19T23:16:13.825Z,96468.36
2022-12-19T23:19:02.629Z,96472.16
2022-12-19T23:21:52.249Z,96470.81
2022-12-19T23:27:21.986Z,96458.21
2022-12-19T23:30:13.593Z,96463.05
2022-12-19T23:35:49.609Z,96459.28
2022-12-19T23:38:39.145Z,96458.22
2022-12-19T23:44:16.012Z,96449.87
2022-12-19T23:47:04.545Z,96449.06
2022-12-19T23:52:54.961Z,96436.66
2022-12-19T23:58:32.143Z,96438.73
